createdAt,value
2022-10-19T21:20:50.512Z,22.14
2022-10-19T21:22:54.611Z,21.55
2022-10-19T21:24:58.549Z,21.56
2022-10-19T21:27:03.905Z,21.67
2022-10-19T21:29:10.753Z,21.53
2022-10-19T21:31:14.949Z,21.93
2022-10-19T21:33:18.295Z,21.30
2022-10-19T21:35:26.275Z,21.30
2022-10-19T21:37:31.122Z,21.12
2022-10-19T21:39:34.843Z,21.06
2022-10-19T21:41:38.861Z,21.02
2022-10-19T21:43:42.675Z,20.29
2022-10-19T21:45:46.185Z,20.08
2022-10-19T21:47:50.210Z,20.03
2022-10-19T21:49:53.796Z,20.29
2022-10-19T21:51:58.335Z,20.49
2022-10-19T21:54:02.593Z,20.69
2022-10-19T21:56:08.623Z,20.56
2022-10-19T21:58:12.753Z,20.64
2022-10-19T22:00:16.771Z,20.83
2022-10-19T22:02:20.109Z,20.89
2022-10-19T22:04:23.764Z,20.73
2022-10-19T22:06:31.170Z,20.58
2022-10-19T22:08:35.923Z,20.36
2022-10-19T22:10:39.821Z,20.53
2022-10-19T22:12:43.712Z,20.18
2022-10-19T22:14:47.525Z,20.00
2022-10-19T22:16:51.556Z,20.50
2022-10-19T22:18:56.806Z,19.60
2022-10-19T22:21:06.547Z,19.76
2022-10-19T22:23:15.466Z,19.12
2022-10-19T22:25:22.092Z,19.08
2022-10-19T22:27:26.097Z,18.78
2022-10-19T22:29:29.640Z,19.16
2022-10-19T22:31:36.482Z,19.30
2022-10-19T22:33:40.389Z,19.46
2022-10-19T22:35:44.652Z,19.34
2022-10-19T22:37:48.353Z,19.13
2022-10-19T22:39:51.922Z,18.99
2022-10-19T22:42:33.367Z,19.32
2022-10-19T22:44:56.108Z,18.89
2022-10-19T22:47:18.399Z,19.28
2022-10-19T22:49:58.724Z,19.65
2022-10-19T22:52:20.973Z,20.26
2022-10-19T22:54:24.375Z,21.04
2022-10-19T22:56:28.203Z,21.30
2022-10-19T22:58:31.729Z,21.40
2022-10-19T23:00:35.601Z,21.85
2022-10-19T23:02:41.385Z,22.05
2022-10-19T23:04:45.338Z,23.53
2022-10-19T23:06:48.729Z,22.76
2022-10-19T23:08:52.384Z,22.56
2022-10-19T23:10:55.812Z,23.65
2022-10-19T23:13:05.271Z,23.04
2022-10-19T23:15:08.871Z,23.29
2022-10-19T23:17:12.495Z,23.15
2022-10-19T23:19:16.120Z,23.73
2022-10-19T23:21:19.982Z,23.49
2022-10-19T23:23:23.823Z,23.65
2022-10-19T23:25:27.904Z,23.69
2022-10-19T23:27:31.432Z,23.71
2022-10-19T23:29:35.526Z,25.03
2022-10-19T23:31:39.301Z,23.79
2022-10-19T23:33:44.024Z,24.10
2022-10-19T23:35:47.441Z,25.77
2022-10-19T23:37:54.102Z,24.97
2022-10-19T23:40:00.110Z,25.07
2022-10-19T23:42:03.614Z,24.92
2022-10-19T23:44:07.342Z,25.73
2022-10-19T23:46:11.565Z,26.32
2022-10-19T23:48:15.322Z,25.64
2022-10-19T23:50:19.190Z,26.80
2022-10-19T23:52:22.766Z,26.83
2022-10-19T23:54:26.515Z,26.98
2022-10-19T23:56:30.511Z,27.46
2022-10-19T23:58:34.240Z,26.95
